Time;durP1;ratioP1;P1;durP2;ratioP2;P2;SDS_P1;SDS_P2;PMS_P1;PMS_P2;Temp;Humidity;BMP_temperature;BMP_pressure;BME280_temperature;BME280_humidity;BME280_pressure;Samples;Min_cycle;Max_cycle;Signal;HPM_P1;HPM_P2
2022/11/03 00:01:44;;;;;;;14.55;4.63;;;;;;;16.17;69.51;101014.34;4985804;28;20058;-71
2022/11/03 00:04:15;;;;;;;19.07;4.73;;;;;;;16.24;71.07;101020.16;5003822;28;20061;-71
2022/11/03 00:06:43;;;;;;;;;;;;;;;16.31;70.70;101019.56;4990026;28;20289;-72
2022/11/03 00:09:13;;;;;;;20.98;4.40;;;;;;;16.42;70.14;101026.31;4977979;28;19929;-70
2022/11/03 00:11:42;;;;;;;21.90;4.53;;;;;;;16.28;70.00;101023.03;4994298;28;20054;-64
2022/11/03 00:14:10;;;;;;;16.35;4.43;;;;;;;16.42;70.58;101015.19;4992355;28;20054;-66
2022/11/03 00:16:38;;;;;;;17.88;4.68;;;;;;;15.87;72.44;101012.84;4989901;28;20051;-65
2022/11/03 00:19:06;;;;;;;21.30;4.25;;;;;;;15.89;72.07;101006.94;4995351;28;20061;-66
2022/11/03 00:21:34;;;;;;;15.88;4.78;;;;;;;15.35;70.96;100998.56;4988118;28;20413;-65
2022/11/03 00:24:02;;;;;;;13.32;3.83;;;;;;;15.68;73.56;100999.47;4991904;28;20053;-65
2022/11/03 00:26:31;;;;;;;16.23;4.13;;;;;;;15.63;72.99;100998.84;4990707;28;20050;-64
2022/11/03 00:29:01;;;;;;;15.33;4.23;;;;;;;15.87;73.20;100990.63;4979571;28;20061;-64
2022/11/03 00:31:34;;;;;;;20.73;4.78;;;;;;;16.24;71.90;100989.56;4964419;28;20537;-65
2022/11/03 00:34:04;;;;;;;17.13;3.88;;;;;;;16.43;71.30;100989.00;4982409;28;20062;-65
2022/11/03 00:36:32;;;;;;;;;;;;;;;16.41;70.31;100982.97;4996182;28;20053;-65
2022/11/03 00:39:00;;;;;;;17.92;4.50;;;;;;;16.32;70.47;100985.88;4995204;28;19922;-66
2022/11/03 00:41:27;;;;;;;18.52;4.63;;;;;;;16.14;72.09;100981.69;4992164;28;20061;-65
2022/11/03 00:43:56;;;;;;;16.95;4.00;;;;;;;16.34;70.95;100978.00;4980908;28;20038;-65
2022/11/03 00:46:24;;;;;;;14.32;4.50;;;;;;;16.47;70.22;100967.72;4997821;28;20050;-65
2022/11/03 00:48:51;;;;;;;15.77;4.30;;;;;;;16.43;70.78;100963.97;4996938;28;20050;-64
2022/11/03 00:51:24;;;;;;;12.88;3.88;;;;;;;16.54;69.90;100963.22;4990035;28;20061;-71
2022/11/03 00:53:59;;;;;;;18.83;4.35;;;;;;;16.35;69.58;100962.94;4995552;28;20051;-65
2022/11/03 00:56:34;;;;;;;17.92;4.55;;;;;;;15.91;71.04;100957.41;4993294;28;20051;-71
2022/11/03 00:59:02;;;;;;;15.38;4.13;;;;;;;15.92;72.01;100954.28;4995316;28;20050;-71
2022/11/03 01:01:39;;;;;;;15.52;4.22;;;;;;;15.69;72.78;100944.75;4990968;28;20050;-71
2022/11/03 01:07:00;;;;;;;16.98;4.07;;;;;;;16.06;72.63;100934.50;4989782;28;20057;-65
2022/11/03 01:09:28;;;;;;;18.05;4.45;;;;;;;16.20;72.00;100933.03;4996997;28;20053;-71
2022/11/03 01:12:14;;;;;;;15.73;4.40;;;;;;;16.04;71.95;100929.28;4996294;28;20053;-65
2022/11/03 01:14:47;;;;;;;17.38;4.78;;;;;;;16.18;71.29;100924.22;4997390;28;20048;-71
2022/11/03 01:17:25;;;;;;;18.85;4.32;;;;;;;16.11;71.45;100928.75;4989610;28;20057;-65
2022/11/03 01:19:53;;;;;;;15.18;3.85;;;;;;;16.11;72.67;100923.97;4996305;28;20063;-71
2022/11/03 01:22:22;;;;;;;10.10;3.50;;;;;;;16.18;70.51;100913.09;4996947;28;20046;-71
2022/11/03 01:24:50;;;;;;;14.88;4.53;;;;;;;16.04;70.54;100914.63;4977562;28;20513;-70
2022/11/03 01:27:19;;;;;;;13.63;3.70;;;;;;;16.11;72.08;100898.19;4959466;28;20058;-71
2022/11/03 01:29:47;;;;;;;12.07;3.95;;;;;;;16.14;71.65;100901.09;4997310;28;20054;-72
2022/11/03 01:32:14;;;;;;;15.85;3.75;;;;;;;16.28;71.47;100895.19;4975018;28;20057;-72
2022/11/03 01:34:42;;;;;;;18.13;3.92;;;;;;;16.45;70.65;100900.50;4975987;28;20039;-64
2022/11/03 01:37:09;;;;;;;14.93;3.67;;;;;;;16.30;71.32;100892.88;4978649;28;20054;-65
2022/11/03 01:39:36;;;;;;;13.07;3.58;;;;;;;16.08;70.81;100882.19;4979328;28;20058;-71
2022/11/03 01:42:04;;;;;;;15.07;3.78;;;;;;;16.12;71.93;100875.59;4997253;28;20102;-70
2022/11/03 01:44:42;;;;;;;14.50;3.78;;;;;;;16.13;72.18;100866.09;4960342;28;20137;-64
2022/11/03 01:47:23;;;;;;;16.92;4.53;;;;;;;16.09;73.09;100867.16;4979147;28;20058;-71
2022/11/03 01:50:14;;;;;;;14.55;3.42;;;;;;;15.91;72.26;100868.50;4997152;28;20050;-65
2022/11/03 01:52:51;;;;;;;15.82;4.30;;;;;;;15.81;73.42;100846.75;4979890;28;20079;-71
2022/11/03 01:55:21;;;;;;;15.80;3.80;;;;;;;15.62;73.73;100855.63;4995695;28;20053;-72
2022/11/03 01:57:50;;;;;;;;;;;;;;;15.46;74.58;100843.53;5008103;28;20050;-65
2022/11/03 02:00:17;;;;;;;14.15;3.80;;;;;;;15.99;74.32;100845.38;4987139;28;20432;-71
2022/11/03 02:02:44;;;;;;;15.00;3.20;;;;;;;16.24;72.50;100836.69;4995316;28;20527;-72
2022/11/03 02:05:14;;;;;;;15.23;3.63;;;;;;;16.32;71.74;100830.19;4996075;28;20054;-71
2022/11/03 02:07:56;;;;;;;15.73;3.50;;;;;;;16.37;71.65;100823.59;4969601;28;20050;-70
2022/11/03 02:10:24;;;;;;;15.27;3.88;;;;;;;16.49;71.58;100829.97;4995273;28;20042;-71
2022/11/03 02:12:51;;;;;;;16.42;3.92;;;;;;;16.19;71.05;100825.00;4995086;28;20058;-70
2022/11/03 02:15:20;;;;;;;17.83;3.80;;;;;;;16.33;71.61;100819.88;4992510;28;20098;-71
2022/11/03 02:17:49;;;;;;;16.38;3.90;;;;;;;15.99;72.32;100812.03;4995499;28;20065;-70
2022/11/03 02:20:19;;;;;;;16.92;4.45;;;;;;;16.24;72.58;100810.84;4994043;28;20375;-70
2022/11/03 02:23:10;;;;;;;13.55;3.10;;;;;;;16.07;70.53;100805.53;4988572;28;20054;-70
2022/11/03 02:25:43;;;;;;;14.50;3.33;;;;;;;16.23;72.65;100793.34;4993775;28;20050;-70
2022/11/03 02:28:12;;;;;;;16.42;3.88;;;;;;;15.66;72.95;100798.22;4991002;28;20066;-70
2022/11/03 02:31:09;;;;;;;14.57;3.70;;;;;;;15.48;74.71;100792.06;4977904;28;20077;-70
2022/11/03 02:33:51;;;;;;;15.73;4.10;;;;;;;15.89;74.42;100793.03;4983225;28;20042;-70
2022/11/03 02:36:22;;;;;;;12.85;3.95;;;;;;;16.11;73.85;100781.47;4992019;28;20050;-64
2022/11/03 02:39:13;;;;;;;14.90;3.25;;;;;;;16.35;72.08;100781.44;4994940;28;20061;-65
2022/11/03 02:41:40;;;;;;;18.60;3.80;;;;;;;15.62;74.15;100778.66;4990520;28;20061;-64
2022/11/03 02:44:13;;;;;;;20.77;4.25;;;;;;;15.71;75.59;100778.56;5010192;28;20054;-64
2022/11/03 02:46:42;;;;;;;12.95;3.38;;;;;;;16.04;73.82;100761.78;4971071;28;20050;-70
2022/11/03 02:49:09;;;;;;;15.40;4.07;;;;;;;15.91;72.92;100768.50;4986216;28;20502;-71
2022/11/03 02:51:37;;;;;;;14.77;3.80;;;;;;;15.70;74.28;100761.09;4986413;28;20054;-71
2022/11/03 02:54:22;;;;;;;15.98;3.55;;;;;;;16.11;74.41;100746.13;4994939;28;20493;-70
2022/11/03 02:56:58;;;;;;;12.13;3.38;;;;;;;16.18;72.75;100740.00;4978522;28;20057;-70
2022/11/03 02:59:33;;;;;;;11.40;3.85;;;;;;;16.29;71.64;100732.78;4974044;28;20050;-71
2022/11/03 03:02:09;;;;;;;13.38;3.65;;;;;;;16.19;72.66;100731.31;4995496;28;20054;-72
2022/11/03 03:04:41;;;;;;;12.27;3.38;;;;;;;16.14;71.91;100730.75;5006470;28;20050;-71
2022/11/03 03:07:24;;;;;;;17.52;3.35;;;;;;;16.30;72.38;100710.19;4978351;28;20382;-71
2022/11/03 03:10:13;;;;;;;16.02;4.35;;;;;;;16.13;72.07;100691.03;4978549;28;20054;-72
2022/11/03 03:12:48;;;;;;;18.23;3.60;;;;;;;15.87;71.79;100681.44;4976557;28;20046;-71
2022/11/03 03:15:17;;;;;;;17.10;4.25;;;;;;;15.87;74.05;100682.28;4987967;28;20046;-70
2022/11/03 03:17:53;;;;;;;16.52;4.05;;;;;;;15.66;74.36;100684.38;4962776;28;20046;-70
2022/11/03 03:20:36;;;;;;;12.20;3.70;;;;;;;15.33;75.38;100680.88;4977926;28;20055;-70
2022/11/03 03:23:13;;;;;;;15.98;3.70;;;;;;;15.86;75.07;100671.50;4994280;28;20047;-70
2022/11/03 03:25:46;;;;;;;14.48;3.80;;;;;;;16.22;73.71;100658.34;4990153;28;20065;-70
2022/11/03 03:28:22;;;;;;;11.68;3.53;;;;;;;15.97;73.20;100662.34;4977212;28;20050;-71
2022/11/03 03:30:51;;;;;;;16.73;3.75;;;;;;;15.56;73.52;100644.03;4995065;28;20061;-72
2022/11/03 03:33:18;;;;;;;13.70;3.58;;;;;;;15.90;73.78;100633.56;4977600;28;20058;-72
2022/11/03 03:35:48;;;;;;;14.18;4.20;;;;;;;15.87;71.40;100614.78;4977325;28;20046;-71
2022/11/03 03:38:26;;;;;;;18.05;3.90;;;;;;;15.44;74.64;100613.50;4978010;28;20061;-72
2022/11/03 03:40:54;;;;;;;18.35;4.00;;;;;;;15.19;74.03;100625.72;4977706;28;20054;-72
2022/11/03 03:43:23;;;;;;;18.35;3.75;;;;;;;15.61;74.77;100623.53;4990391;28;20061;-72
2022/11/03 03:45:52;;;;;;;11.73;3.15;;;;;;;15.55;74.82;100624.94;4994863;28;20053;-71
2022/11/03 03:48:19;;;;;;;16.27;3.00;;;;;;;15.82;73.91;100631.69;4974189;28;20054;-71
2022/11/03 03:50:48;;;;;;;14.52;3.28;;;;;;;16.11;73.05;100620.31;4961392;28;20047;-71
2022/11/03 03:53:17;;;;;;;17.08;2.95;;;;;;;16.30;72.50;100624.03;5008911;28;20620;-71
2022/11/03 03:55:47;;;;;;;17.38;3.15;;;;;;;16.41;71.38;100636.25;4996812;28;20065;-71
2022/11/03 03:58:14;;;;;;;13.10;3.20;;;;;;;16.41;71.32;100632.66;5013786;28;20061;-70
2022/11/03 04:00:42;;;;;;;16.33;3.97;;;;;;;16.48;70.71;100639.28;5008225;28;20045;-71
2022/11/03 04:03:22;;;;;;;12.65;3.30;;;;;;;16.48;70.23;100630.13;5003363;28;20053;-71
2022/11/03 04:05:50;;;;;;;17.77;4.25;;;;;;;16.44;70.28;100627.22;5000094;28;20056;-70
2022/11/03 04:08:17;;;;;;;16.92;3.45;;;;;;;16.50;70.61;100616.66;5018634;28;20461;-71
2022/11/03 04:24:36;;;;;;;14.45;3.67;;;;;;;16.19;70.67;100605.44;5018436;28;20050;-70
2022/11/03 04:27:15;;;;;;;13.18;4.00;;;;;;;15.97;71.07;100592.09;5017653;28;20050;-71
2022/11/03 04:29:42;;;;;;;16.77;3.55;;;;;;;15.82;71.72;100581.72;5016173;28;20161;-71
2022/11/03 04:32:14;;;;;;;12.57;3.17;;;;;;;16.06;72.83;100574.09;5017333;28;20054;-72
2022/11/03 04:34:44;;;;;;;16.48;3.83;;;;;;;16.18;71.75;100562.94;4964891;28;20054;-71
2022/11/03 04:37:12;;;;;;;12.80;3.87;;;;;;;16.08;71.77;100573.75;5013468;28;20056;-71
2022/11/03 04:39:40;;;;;;;19.70;4.00;;;;;;;15.98;71.94;100569.50;5017801;28;20321;-71
2022/11/03 04:42:26;;;;;;;15.05;3.60;;;;;;;15.63;72.59;100557.34;5017734;28;20069;-71
2022/11/03 04:45:01;;;;;;;14.13;3.72;;;;;;;15.75;72.99;100554.53;4999927;28;20516;-71
2022/11/03 04:47:29;;;;;;;15.43;3.88;;;;;;;15.54;72.32;100551.13;5016248;28;20497;-71
2022/11/03 04:49:57;;;;;;;12.98;3.75;;;;;;;15.96;72.55;100548.78;5000229;28;20049;-71
2022/11/03 04:52:24;;;;;;;17.08;4.10;;;;;;;15.93;72.69;100550.31;5015983;28;20058;-71
2022/11/03 04:54:52;;;;;;;13.80;3.35;;;;;;;15.88;72.77;100544.22;5010251;28;20050;-71
2022/11/03 04:57:19;;;;;;;14.25;3.70;;;;;;;16.03;72.06;100535.91;4988569;28;20639;-71
2022/11/03 04:59:49;;;;;;;12.25;3.42;;;;;;;16.14;71.39;100533.44;4991412;28;20042;-71
2022/11/03 05:02:19;;;;;;;11.80;3.85;;;;;;;16.22;71.79;100530.50;4996394;28;20054;-70
2022/11/03 05:04:47;;;;;;;;;;;;;;;16.28;71.31;100522.72;4979131;28;20066;-71
2022/11/03 05:07:32;;;;;;;15.77;3.88;;;;;;;16.26;69.98;100511.97;5003256;28;19922;-71
2022/11/03 05:10:00;;;;;;;10.88;2.83;;;;;;;16.18;70.72;100498.22;5008910;28;20140;-71
2022/11/03 05:12:28;;;;;;;22.63;3.75;;;;;;;15.29;69.69;100499.59;5012706;28;20062;-71
2022/11/03 05:14:55;;;;;;;12.90;3.17;;;;;;;15.27;74.60;100502.69;5008416;28;20049;-71
2022/11/03 05:17:26;;;;;;;18.95;4.10;;;;;;;14.89;73.83;100499.50;4997576;28;20455;-70
2022/11/03 05:19:56;;;;;;;12.30;3.28;;;;;;;15.50;74.58;100506.59;4997640;28;20402;-70
2022/11/03 05:22:28;;;;;;;11.23;3.10;;;;;;;15.71;72.96;100492.53;4976834;28;20055;-70
2022/11/03 05:24:57;;;;;;;14.48;4.00;;;;;;;16.17;71.68;100482.69;4977066;28;20058;-71
2022/11/03 05:27:25;;;;;;;12.48;3.47;;;;;;;15.65;71.52;100464.22;4995351;28;20057;-71
2022/11/03 05:29:53;;;;;;;18.95;4.30;;;;;;;14.94;74.57;100460.44;4978932;28;20057;-70
2022/11/03 05:32:31;;;;;;;16.63;3.90;;;;;;;14.97;75.23;100453.38;4995443;28;20046;-70
2022/11/03 05:34:59;;;;;;;15.90;4.10;;;;;;;15.22;74.57;100463.28;4994543;28;20053;-70
2022/11/03 05:37:33;;;;;;;13.90;4.38;;;;;;;15.11;73.92;100462.97;4998727;28;20049;-70
2022/11/03 05:40:14;;;;;;;12.40;4.03;;;;;;;15.14;74.97;100451.16;4983603;28;20057;-70
2022/11/03 05:42:44;;;;;;;13.02;3.80;;;;;;;15.46;73.32;100433.50;4999452;28;20163;-73
2022/11/03 05:45:31;;;;;;;;;;;;;;;15.67;72.72;100420.22;5003717;28;20062;-70
2022/11/03 05:48:00;;;;;;;13.90;4.15;;;;;;;14.86;75.40;100408.69;4995947;28;19922;-70
2022/11/03 05:50:30;;;;;;;8.63;3.03;;;;;;;15.38;74.80;100405.88;4962988;28;20054;-72
2022/11/03 05:53:26;;;;;;;13.88;4.03;;;;;;;15.12;73.30;100399.94;5007654;28;20054;-72
2022/11/03 05:55:54;;;;;;;13.10;4.13;;;;;;;15.32;74.35;100407.28;5016079;28;20038;-71
2022/11/03 05:58:30;;;;;;;14.27;4.10;;;;;;;14.82;74.20;100404.19;5014531;28;20420;-72
2022/11/03 06:00:59;;;;;;;10.57;3.13;;;;;;;15.15;76.28;100402.81;4997840;28;20109;-71
2022/11/03 06:03:28;;;;;;;18.43;4.30;;;;;;;15.50;72.18;100387.22;5016450;28;20049;-70
2022/11/03 06:05:57;;;;;;;21.90;3.78;;;;;;;14.99;74.27;100398.38;5014699;28;20289;-71
2022/11/03 06:08:27;;;;;;;13.93;4.10;;;;;;;14.94;73.05;100404.16;5016587;28;20500;-70
2022/11/03 06:10:56;;;;;;;15.98;3.90;;;;;;;14.52;76.99;100390.56;5015798;28;20045;-70
2022/11/03 06:13:32;;;;;;;14.18;3.88;;;;;;;14.77;75.42;100380.28;5014287;28;20640;-71
2022/11/03 06:16:05;;;;;;;13.80;3.67;;;;;;;14.56;74.62;100376.84;5014886;28;20050;-71
2022/11/03 06:18:36;;;;;;;15.05;3.85;;;;;;;14.94;76.33;100385.53;4998114;28;20058;-71
2022/11/03 06:21:10;;;;;;;12.30;3.63;;;;;;;15.34;74.51;100378.00;5015637;28;20069;-71
2022/11/03 06:23:39;;;;;;;19.40;4.10;;;;;;;15.12;74.77;100369.44;4998259;28;20068;-71
2022/11/03 06:26:21;;;;;;;14.70;3.58;;;;;;;15.08;75.49;100363.00;5016006;28;20042;-71
2022/11/03 06:28:48;;;;;;;14.95;4.53;;;;;;;14.90;74.97;100350.56;4998065;28;20064;-71
2022/11/03 06:31:22;;;;;;;18.33;4.47;;;;;;;14.58;75.99;100346.81;4997498;28;20057;-71
2022/11/03 06:33:51;;;;;;;13.27;3.58;;;;;;;14.32;78.12;100340.84;5016231;28;20057;-70
2022/11/03 06:36:21;;;;;;;11.48;3.00;;;;;;;14.97;76.54;100345.22;5015816;28;20050;-71
2022/11/03 06:38:53;;;;;;;;;;;;;;;14.65;75.95;100338.72;5016473;28;20048;-72
2022/11/03 06:41:26;;;;;;;12.93;3.30;;;;;;;15.06;75.13;100321.75;5016165;28;19925;-71
2022/11/03 06:43:54;;;;;;;13.98;3.47;;;;;;;15.33;74.29;100323.69;4988352;28;20058;-71
2022/11/03 06:46:23;;;;;;;13.48;4.03;;;;;;;15.58;73.74;100316.06;5003689;28;20058;-71
2022/11/03 06:48:58;;;;;;;17.10;4.40;;;;;;;14.82;75.36;100324.56;4980856;28;20057;-72
2022/11/03 06:51:27;;;;;;;13.73;3.47;;;;;;;15.58;73.66;100310.50;5015301;28;20054;-71
2022/11/03 06:54:00;;;;;;;14.30;3.28;;;;;;;15.89;72.13;100315.25;4979982;28;20073;-71
2022/11/03 06:56:30;;;;;;;15.30;3.72;;;;;;;15.57;73.02;100318.03;4996160;28;20053;-71
2022/11/03 06:58:57;;;;;;;16.65;3.72;;;;;;;15.99;72.50;100314.75;4977124;28;20051;-72
2022/11/03 07:01:30;;;;;;;17.08;3.70;;;;;;;15.90;71.11;100295.47;4995611;28;20120;-70
2022/11/03 07:04:03;;;;;;;15.35;3.67;;;;;;;15.36;70.98;100275.78;4990839;28;20050;-72
2022/11/03 07:06:34;;;;;;;12.95;3.67;;;;;;;15.07;72.33;100278.13;4990071;28;20050;-72
2022/11/03 07:09:04;;;;;;;14.40;3.65;;;;;;;14.82;73.03;100284.97;4995078;28;20055;-72
2022/11/03 07:11:34;;;;;;;;;;;;;;;15.18;75.98;100284.81;4992409;28;20541;-72
2022/11/03 07:14:14;;;;;;;16.92;4.05;;;;;;;15.52;72.26;100262.78;4970026;28;19933;-73
2022/11/03 07:16:44;;;;;;;9.63;2.97;;;;;;;15.95;72.26;100255.50;4992457;28;20497;-72
2022/11/03 07:19:21;;;;;;;14.07;3.90;;;;;;;16.08;72.39;100257.00;4995066;28;20613;-73
2022/11/03 07:21:58;;;;;;;10.50;3.08;;;;;;;15.15;73.45;100264.09;4994304;28;20050;-73
2022/11/03 07:24:40;;;;;;;11.02;3.22;;;;;;;15.60;75.42;100250.66;4995743;28;20050;-72
2022/11/03 07:27:37;;;;;;;17.20;3.70;;;;;;;15.97;75.06;100248.41;4977822;28;20050;-72
2022/11/03 07:30:15;;;;;;;15.18;3.97;;;;;;;16.21;73.74;100244.63;4994524;28;20046;-72
2022/11/03 07:32:42;;;;;;;12.38;3.45;;;;;;;15.40;73.87;100235.09;4963446;28;20050;-72
2022/11/03 07:35:15;;;;;;;13.85;3.55;;;;;;;15.81;79.87;100227.38;4980632;28;20053;-72
2022/11/03 07:37:48;;;;;;;16.52;3.65;;;;;;;15.48;76.83;100227.78;4989492;28;20058;-71
2022/11/03 07:40:18;;;;;;;12.27;3.22;;;;;;;15.27;78.57;100229.97;4987938;28;20502;-71
2022/11/03 07:42:45;;;;;;;;;;;;;;;15.39;75.20;100216.00;4994743;28;20054;-73
2022/11/03 07:45:37;;;;;;;13.65;4.00;;;;;;;15.36;73.45;100219.50;4980913;28;19933;-74
2022/11/03 07:48:25;;;;;;;10.65;3.08;;;;;;;15.34;71.64;100214.28;5000781;28;20075;-74
2022/11/03 07:50:58;;;;;;;14.95;3.63;;;;;;;15.28;72.63;100210.16;4989819;28;20042;-73
2022/11/03 07:53:31;;;;;;;12.95;3.45;;;;;;;15.22;70.75;100211.59;4999621;28;20063;-72
2022/11/03 07:55:59;;;;;;;15.75;3.70;;;;;;;15.10;71.09;100214.44;4986500;28;20043;-73
2022/11/03 07:58:34;;;;;;;12.90;3.45;;;;;;;15.19;70.88;100198.44;4993877;28;20042;-72
2022/11/03 08:01:16;;;;;;;11.43;3.35;;;;;;;15.42;70.98;100196.69;4977717;28;20077;-73
2022/11/03 08:03:46;;;;;;;12.95;3.65;;;;;;;15.91;68.60;100197.09;4993500;28;20051;-73
2022/11/03 08:06:13;;;;;;;10.90;3.27;;;;;;;16.31;67.87;100194.00;5006299;28;20074;-72
2022/11/03 08:08:47;;;;;;;11.27;3.20;;;;;;;16.14;68.10;100195.25;4997257;28;20305;-73
2022/11/03 08:11:14;;;;;;;13.20;3.33;;;;;;;16.54;66.79;100201.31;4977706;28;20061;-72
2022/11/03 08:13:41;;;;;;;9.65;3.17;;;;;;;16.61;66.01;100187.56;4980871;28;20410;-72
2022/11/03 08:16:09;;;;;;;9.73;2.95;;;;;;;16.82;65.14;100176.84;4983726;28;20476;-73
2022/11/03 08:18:36;;;;;;;10.07;3.00;;;;;;;16.77;64.98;100184.69;5008329;28;20047;-73
2022/11/03 08:21:03;;;;;;;9.07;2.75;;;;;;;16.84;64.32;100185.63;4994478;28;20054;-72
2022/11/03 08:23:31;;;;;;;10.77;3.40;;;;;;;16.66;64.15;100176.13;4961673;28;20065;-73
2022/11/03 08:25:59;;;;;;;7.47;3.00;;;;;;;16.81;64.58;100163.28;4993466;28;20073;-73
2022/11/03 08:28:26;;;;;;;14.18;3.30;;;;;;;17.11;63.71;100157.88;4978142;28;20499;-73
2022/11/03 08:30:53;;;;;;;12.80;3.92;;;;;;;16.81;62.53;100166.91;4985665;28;20050;-72
2022/11/03 08:33:21;;;;;;;13.60;3.53;;;;;;;17.04;63.04;100169.69;5005598;28;20054;-72
2022/11/03 08:35:48;;;;;;;13.15;3.65;;;;;;;17.04;62.61;100158.56;4983123;28;20050;-70
2022/11/03 08:38:16;;;;;;;14.18;4.07;;;;;;;17.13;61.92;100159.13;4989951;28;20051;-70
2022/11/03 08:40:43;;;;;;;15.73;4.25;;;;;;;17.16;61.46;100155.59;4993181;28;20053;-70
2022/11/03 08:43:10;;;;;;;9.65;3.55;;;;;;;17.07;61.60;100154.25;4977398;28;20417;-70
2022/11/03 08:45:37;;;;;;;17.90;4.47;;;;;;;17.14;61.00;100149.59;4993161;28;20226;-70
2022/11/03 08:48:05;;;;;;;11.48;3.90;;;;;;;17.22;60.70;100134.66;4992852;28;20042;-69
2022/11/03 08:50:33;;;;;;;12.23;3.45;;;;;;;16.70;61.97;100124.16;4992746;28;20054;-69
2022/11/03 08:53:00;;;;;;;12.75;3.63;;;;;;;16.85;61.00;100119.66;4990255;28;20409;-70
2022/11/03 08:55:27;;;;;;;18.15;3.63;;;;;;;16.67;62.32;100099.88;5019328;28;20416;-70
2022/11/03 08:57:55;;;;;;;8.77;3.10;;;;;;;16.81;62.06;100100.13;5025039;28;20413;-70
2022/11/03 09:00:22;;;;;;;11.43;3.80;;;;;;;16.98;61.47;100090.47;4997891;28;20425;-71
2022/11/03 09:02:50;;;;;;;10.20;3.50;;;;;;;16.89;61.67;100095.50;5023922;28;20056;-68
2022/11/03 09:05:17;;;;;;;11.98;3.28;;;;;;;16.94;60.98;100092.41;5017065;28;20057;-69
2022/11/03 09:07:44;;;;;;;10.02;3.25;;;;;;;16.89;61.49;100087.94;5016326;28;20429;-68
2022/11/03 09:10:32;;;;;;;14.75;4.03;;;;;;;16.77;61.81;100087.34;5016981;28;20061;-66
2022/11/03 09:13:04;;;;;;;13.57;3.42;;;;;;;17.10;61.06;100079.19;4994768;28;20062;-67
2022/11/03 09:15:32;;;;;;;16.35;4.00;;;;;;;17.18;60.56;100077.31;5008512;28;20053;-67
2022/11/03 09:18:00;;;;;;;14.48;3.28;;;;;;;16.87;60.59;100058.91;5004521;28;20481;-68
2022/11/03 09:20:27;;;;;;;10.63;3.58;;;;;;;16.99;60.84;100057.91;5007845;28;20076;-66
2022/11/03 09:22:55;;;;;;;12.30;3.45;;;;;;;17.28;60.49;100052.41;4961183;28;20077;-66
2022/11/03 09:25:22;;;;;;;14.88;3.30;;;;;;;17.28;60.65;100048.81;4996677;28;20050;-66
2022/11/03 09:27:49;;;;;;;13.90;3.60;;;;;;;17.44;59.98;100035.56;4998615;28;20508;-67
2022/11/03 09:30:17;;;;;;;9.82;3.50;;;;;;;17.53;59.63;100034.16;5015319;28;20046;-66
2022/11/03 09:32:45;;;;;;;9.80;3.30;;;;;;;17.56;59.49;100036.19;5001379;28;20048;-67
2022/11/03 09:35:13;;;;;;;13.63;3.30;;;;;;;17.22;59.45;100028.88;5008131;28;20046;-67
2022/11/03 09:37:40;;;;;;;12.25;2.97;;;;;;;17.29;60.72;100031.78;5007855;28;20061;-67
2022/11/03 09:40:09;;;;;;;13.57;3.10;;;;;;;17.14;61.34;100029.94;5008540;28;20050;-67
2022/11/03 09:42:37;;;;;;;8.80;2.70;;;;;;;17.37;60.48;100011.22;4997541;28;20057;-68
2022/11/03 09:45:06;;;;;;;14.98;3.58;;;;;;;17.47;60.04;100018.94;4998535;28;20532;-67
2022/11/03 09:47:39;;;;;;;15.13;3.50;;;;;;;16.76;60.52;100007.84;4982554;28;20048;-67
2022/11/03 09:50:12;;;;;;;13.13;3.33;;;;;;;16.95;62.52;100004.97;5007787;28;20038;-68
2022/11/03 09:52:40;;;;;;;9.65;3.42;;;;;;;17.17;61.41;99995.81;4989731;28;20043;-68
2022/11/03 09:55:15;;;;;;;7.75;3.00;;;;;;;17.37;60.62;99999.25;4997738;28;20050;-67
2022/11/03 09:57:42;;;;;;;9.32;3.58;;;;;;;17.49;60.57;99983.16;4975456;28;20402;-66
2022/11/03 10:00:19;;;;;;;13.88;3.63;;;;;;;17.31;59.74;99987.63;4975277;28;20055;-67
2022/11/03 10:02:47;;;;;;;8.90;3.83;;;;;;;17.50;59.94;99986.75;4974060;28;20383;-67
2022/11/03 10:05:22;;;;;;;11.80;3.35;;;;;;;17.65;59.66;99988.53;4967984;28;20059;-67
2022/11/03 10:07:51;;;;;;;10.70;2.92;;;;;;;17.69;59.03;99976.28;4987307;28;20406;-67
2022/11/03 10:10:19;;;;;;;12.93;3.13;;;;;;;17.80;58.77;99968.84;4990473;28;20069;-68
2022/11/03 10:12:48;;;;;;;15.30;2.85;;;;;;;17.84;58.93;99975.25;4979382;28;20050;-67
2022/11/03 10:15:17;;;;;;;10.85;2.75;;;;;;;17.86;58.39;99969.31;4977278;28;20081;-67
2022/11/03 10:17:45;;;;;;;9.55;3.08;;;;;;;17.92;58.29;99965.03;4978581;28;20046;-67
2022/11/03 10:20:15;;;;;;;7.88;2.90;;;;;;;17.62;59.00;99967.84;4978613;28;20065;-67
2022/11/03 10:22:43;;;;;;;10.40;3.22;;;;;;;17.78;58.98;99957.28;4992443;28;20042;-67
2022/11/03 10:25:35;;;;;;;11.40;3.17;;;;;;;17.86;58.07;99947.84;4993363;28;20051;-67
2022/11/03 10:28:23;;;;;;;9.40;3.22;;;;;;;17.91;58.28;99939.13;4994535;28;20042;-67
2022/11/03 10:30:50;;;;;;;9.02;3.03;;;;;;;18.05;57.72;99940.44;4978611;28;20530;-67
2022/11/03 10:33:39;;;;;;;9.80;3.10;;;;;;;18.07;57.32;99946.44;4974087;28;20058;-67
2022/11/03 10:36:16;;;;;;;9.97;3.30;;;;;;;18.16;56.56;99939.41;4991848;28;20058;-67
2022/11/03 10:38:43;;;;;;;8.15;3.13;;;;;;;18.30;56.95;99933.16;4992545;28;20042;-68
2022/11/03 10:41:19;;;;;;;9.32;2.90;;;;;;;18.33;56.24;99935.97;4990788;28;20054;-67
2022/11/03 10:44:18;;;;;;;8.82;3.05;;;;;;;18.34;56.37;99918.03;4993353;28;20409;-67
2022/11/03 10:47:03;;;;;;;7.27;2.90;;;;;;;18.51;56.01;99925.81;4991325;28;20046;-67
2022/11/03 10:49:32;;;;;;;5.38;2.60;;;;;;;18.55;55.52;99935.00;4991273;28;20302;-69
2022/11/03 10:52:18;;;;;;;8.80;3.00;;;;;;;18.60;55.44;99928.28;4991274;28;20482;-68
2022/11/03 10:54:46;;;;;;;8.60;2.80;;;;;;;18.65;55.23;99920.38;5008335;28;20363;-67
2022/11/03 10:57:14;;;;;;;10.00;3.13;;;;;;;18.63;55.50;99914.38;4982294;28;20050;-67
2022/11/03 10:59:43;;;;;;;9.88;3.53;;;;;;;18.61;55.58;99904.78;4991676;28;20107;-68
2022/11/03 11:02:17;;;;;;;7.03;2.33;;;;;;;18.64;55.54;99906.78;4989429;28;20058;-68
2022/11/03 11:04:49;;;;;;;6.00;2.60;;;;;;;18.67;54.73;99900.44;4989555;28;20526;-67
2022/11/03 11:07:24;;;;;;;8.27;2.72;;;;;;;18.76;55.13;99892.50;4993473;28;20065;-68
2022/11/03 11:09:53;;;;;;;9.35;2.47;;;;;;;18.85;55.54;99896.59;4995921;28;20058;-69
2022/11/03 11:12:23;;;;;;;6.80;2.20;;;;;;;18.83;55.08;99901.75;5003012;28;20065;-66
2022/11/03 11:14:58;;;;;;;10.35;3.53;;;;;;;18.89;55.14;99888.22;4994243;28;20043;-66
2022/11/03 11:17:40;;;;;;;9.50;2.63;;;;;;;18.81;54.86;99884.59;4988928;28;20043;-67
2022/11/03 11:20:17;;;;;;;9.65;2.42;;;;;;;18.84;55.14;99869.06;4971161;28;20509;-66
2022/11/03 11:22:44;;;;;;;11.10;3.17;;;;;;;18.67;54.85;99862.16;4978448;28;20073;-66
2022/11/03 11:25:12;;;;;;;8.05;3.20;;;;;;;18.71;55.42;99864.97;4990558;28;20071;-67
2022/11/03 11:27:39;;;;;;;7.68;3.05;;;;;;;18.74;55.45;99869.81;4984000;28;20053;-66
2022/11/03 11:30:29;;;;;;;11.00;2.53;;;;;;;18.63;55.33;99882.88;4981919;28;20042;-66
2022/11/03 11:33:12;;;;;;;8.25;2.88;;;;;;;18.55;55.99;99876.44;5007519;28;20521;-67
2022/11/03 11:35:39;;;;;;;13.35;4.88;;;;;;;18.59;56.89;99877.25;4988174;28;20042;-67
2022/11/03 11:38:44;;;;;;;12.40;5.05;;;;;;;18.64;57.60;99859.34;4993460;28;20054;-67
2022/11/03 11:41:11;;;;;;;9.20;4.85;;;;;;;18.67;57.84;99869.75;4989056;28;20053;-66
2022/11/03 11:43:39;;;;;;;12.38;6.32;;;;;;;18.70;57.97;99864.19;5008563;28;20053;-66
2022/11/03 11:46:21;;;;;;;15.68;7.57;;;;;;;18.66;58.19;99851.41;4997447;28;20058;-66
2022/11/03 11:49:09;;;;;;;13.07;7.43;;;;;;;18.63;59.03;99857.75;4994224;28;20053;-64
2022/11/03 11:51:36;;;;;;;13.32;8.27;;;;;;;18.62;59.50;99833.88;4980630;28;20058;-64
2022/11/03 11:54:06;;;;;;;13.02;6.75;;;;;;;18.69;59.68;99834.69;5002656;28;20074;-67
2022/11/03 11:56:45;;;;;;;10.80;6.32;;;;;;;18.67;59.81;99816.75;4992938;28;20050;-66
2022/11/03 11:59:22;;;;;;;11.75;6.18;;;;;;;18.71;60.05;99829.53;4993027;28;20509;-66
2022/11/03 12:01:55;;;;;;;11.88;6.15;;;;;;;18.73;60.06;99829.13;4988756;28;20038;-67